createdAt,value
2019-04-20T00:00:46.073Z,13.90
2019-04-20T00:03:11.640Z,13.90
2019-04-20T00:05:39.279Z,14.00
2019-04-20T00:08:12.757Z,13.90
2019-04-20T00:10:48.740Z,13.80
2019-04-20T00:13:19.424Z,13.70
2019-04-20T00:15:36.761Z,13.60
2019-04-20T00:18:06.763Z,13.40
2019-04-20T00:20:37.177Z,13.50
2019-04-20T00:23:33.779Z,13.10
2019-04-20T00:26:24.923Z,13.20
2019-04-20T00:29:00.317Z,13.20
2019-04-20T00:31:29.739Z,13.30
2019-04-20T00:33:55.863Z,13.30
2019-04-20T00:36:13.897Z,13.20
2019-04-20T00:38:48.384Z,13.00
2019-04-20T00:41:14.213Z,12.70
2019-04-20T00:43:42.241Z,12.60
2019-04-20T00:46:18.348Z,12.70
2019-04-20T00:48:50.668Z,12.80
2019-04-20T00:51:40.491Z,12.80
2019-04-20T00:53:44.971Z,13.00
2019-04-20T00:56:09.986Z,13.00
2019-04-20T00:58:53.543Z,13.00
2019-04-20T01:01:25.166Z,12.90
2019-04-20T01:03:52.239Z,12.60
2019-04-20T01:06:36.611Z,12.70
2019-04-20T01:09:01.537Z,12.60
2019-04-20T01:11:36.829Z,12.50
2019-04-20T01:14:04.670Z,12.40
2019-04-20T01:16:38.885Z,12.40
2019-04-20T01:18:59.391Z,12.50
2019-04-20T01:21:29.844Z,12.30
2019-04-20T01:24:01.554Z,12.30
2019-04-20T01:26:27.393Z,12.20
2019-04-20T01:29:09.021Z,12.10
2019-04-20T01:31:33.972Z,12.20
2019-04-20T01:34:03.009Z,12.20
2019-04-20T01:36:40.688Z,12.30
2019-04-20T01:39:06.693Z,12.40
2019-04-20T01:41:22.499Z,12.30
2019-04-20T01:43:50.195Z,12.00
2019-04-20T01:46:23.090Z,11.80
2019-04-20T01:48:48.103Z,11.90
2019-04-20T01:51:21.301Z,12.00
2019-04-20T01:54:06.957Z,12.00
2019-04-20T01:56:33.915Z,12.00
2019-04-20T01:59:19.999Z,12.00
2019-04-20T02:01:59.282Z,12.00
2019-04-20T02:04:35.972Z,11.90
2019-04-20T02:07:03.853Z,11.70
2019-04-20T02:09:32.708Z,11.70
2019-04-20T02:12:10.311Z,11.80
2019-04-20T02:14:40.516Z,11.80
2019-04-20T02:17:09.564Z,11.60
2019-04-20T02:19:42.736Z,11.50
2019-04-20T02:22:13.542Z,11.50
2019-04-20T02:24:29.964Z,11.40
2019-04-20T02:26:57.923Z,11.30
2019-04-20T02:29:47.458Z,11.30
2019-04-20T02:32:23.960Z,11.20
2019-04-20T02:34:59.804Z,11.10
2019-04-20T02:37:58.503Z,10.90
2019-04-20T02:42:53.378Z,11.00
2019-04-20T02:45:17.417Z,10.90
2019-04-20T02:50:15.294Z,10.80
2019-04-20T02:55:14.614Z,10.70
2019-04-20T02:57:47.277Z,10.80
2019-04-20T03:02:23.633Z,11.00
2019-04-20T03:04:45.256Z,10.90
2019-04-20T03:07:19.237Z,10.90
2019-04-20T03:09:54.384Z,10.90
2019-04-20T03:12:28.858Z,10.80
2019-04-20T03:14:47.831Z,10.90
2019-04-20T03:17:30.033Z,10.90
2019-04-20T03:19:51.262Z,10.90
2019-04-20T03:22:36.501Z,10.90
2019-04-20T03:24:55.410Z,10.90
2019-04-20T03:27:33.026Z,11.00
2019-04-20T03:31:04.075Z,10.60
2019-04-20T03:33:12.679Z,10.70
2019-04-20T03:35:22.487Z,10.70
2019-04-20T03:37:52.883Z,10.60
2019-04-20T03:40:19.303Z,10.50
2019-04-20T03:42:30.928Z,10.60
2019-04-20T03:45:06.012Z,10.50
2019-04-20T03:47:38.785Z,10.30
2019-04-20T03:50:24.953Z,10.60
2019-04-20T03:52:51.331Z,10.60
2019-04-20T03:55:28.720Z,10.50
2019-04-20T03:58:10.743Z,10.50
2019-04-20T04:00:57.275Z,10.50
2019-04-20T04:06:05.434Z,10.40
2019-04-20T04:08:30.936Z,10.20
2019-04-20T04:11:12.306Z,10.10
2019-04-20T04:13:23.015Z,9.90
2019-04-20T04:15:57.558Z,9.70
2019-04-20T04:18:28.052Z,9.70
2019-04-20T04:20:57.306Z,9.90
2019-04-20T04:23:36.616Z,9.90
2019-04-20T04:26:12.944Z,10.10
2019-04-20T04:28:37.337Z,10.10
2019-04-20T04:31:07.939Z,10.00
2019-04-20T04:36:00.586Z,10.00
2019-04-20T04:38:37.393Z,9.70
2019-04-20T04:43:36.305Z,9.60
2019-04-20T04:45:45.284Z,9.60
2019-04-20T04:48:18.954Z,9.60
2019-04-20T04:50:47.494Z,9.80
2019-04-20T04:53:25.052Z,9.80
2019-04-20T04:55:47.734Z,9.70
2019-04-20T04:58:12.762Z,9.70
2019-04-20T05:00:40.797Z,9.60
2019-04-20T05:03:27.012Z,9.70
2019-04-20T05:06:13.341Z,9.70
2019-04-20T05:08:34.738Z,9.70
2019-04-20T05:10:56.304Z,9.60
2019-04-20T05:13:26.735Z,9.60
2019-04-20T05:16:08.118Z,9.60
2019-04-20T05:18:45.085Z,9.60
2019-04-20T05:21:25.627Z,9.50
2019-04-20T05:24:06.174Z,9.50
2019-04-20T05:27:03.060Z,9.60
2019-04-20T05:29:14.471Z,9.60
2019-04-20T05:31:45.977Z,9.60
2019-04-20T05:34:25.792Z,9.60
2019-04-20T05:36:50.585Z,9.60
2019-04-20T05:39:26.974Z,9.70
2019-04-20T05:41:53.199Z,9.70
2019-04-20T05:44:22.094Z,9.70
2019-04-20T05:47:03.027Z,9.70
2019-04-20T05:49:33.082Z,9.70
2019-04-20T05:51:56.033Z,9.70
2019-04-20T05:54:27.745Z,9.80
2019-04-20T05:57:00.597Z,9.80
2019-04-20T05:59:26.125Z,9.80
2019-04-20T06:01:57.693Z,9.90
2019-04-20T06:04:40.037Z,9.90
2019-04-20T06:06:56.500Z,9.90
2019-04-20T06:09:28.682Z,9.90
2019-04-20T06:12:07.803Z,10.00
2019-04-20T06:14:41.511Z,10.00
2019-04-20T06:17:31.994Z,10.00
2019-04-20T06:20:09.037Z,10.00
2019-04-20T06:22:42.797Z,10.00
2019-04-20T06:25:33.389Z,10.10
2019-04-20T06:27:49.273Z,10.20
2019-04-20T06:30:06.881Z,10.20
2019-04-20T06:33:25.180Z,10.20
2019-04-20T06:36:15.097Z,10.20
2019-04-20T06:38:38.324Z,10.20
2019-04-20T06:40:59.421Z,10.30
2019-04-20T06:43:18.055Z,10.30
2019-04-20T06:45:51.294Z,10.40
2019-04-20T06:48:21.465Z,10.30
2019-04-20T06:50:44.114Z,10.40
2019-04-20T06:53:46.962Z,10.50
2019-04-20T06:56:05.312Z,10.50
2019-04-20T06:58:46.359Z,10.60
2019-04-20T07:01:02.187Z,10.60
2019-04-20T07:03:42.322Z,10.60
2019-04-20T07:06:24.952Z,10.60
2019-04-20T07:08:48.868Z,10.70
2019-04-20T07:11:04.348Z,10.80
2019-04-20T07:13:22.976Z,10.80
2019-04-20T07:15:57.177Z,10.80
2019-04-20T07:18:35.778Z,10.90
2019-04-20T07:21:22.965Z,11.00
2019-04-20T07:23:48.288Z,11.10
2019-04-20T07:26:16.954Z,11.10
2019-04-20T07:28:47.316Z,11.10
2019-04-20T07:31:17.282Z,11.20
2019-04-20T07:33:46.338Z,11.20
2019-04-20T07:36:22.747Z,11.40
2019-04-20T07:39:05.567Z,11.40
2019-04-20T07:41:08.723Z,11.40
2019-04-20T07:43:57.383Z,11.50
2019-04-20T07:46:33.160Z,11.50
2019-04-20T07:48:42.365Z,11.60
2019-04-20T07:51:02.668Z,11.80
2019-04-20T07:53:34.391Z,11.80
2019-04-20T07:56:12.578Z,11.90
2019-04-20T07:58:30.706Z,11.90
2019-04-20T08:01:23.796Z,12.00
2019-04-20T08:04:01.393Z,12.00
2019-04-20T08:06:23.441Z,12.10
2019-04-20T08:08:58.627Z,12.30
2019-04-20T08:11:36.887Z,12.30
2019-04-20T08:14:07.351Z,12.30
2019-04-20T08:16:51.758Z,12.30
2019-04-20T08:19:07.938Z,12.40
2019-04-20T08:21:38.703Z,12.50
2019-04-20T08:24:02.913Z,12.50
2019-04-20T08:26:21.456Z,12.60
2019-04-20T08:29:01.187Z,12.60
2019-04-20T08:32:08.489Z,12.70
2019-04-20T08:34:44.383Z,12.80
2019-04-20T08:37:07.131Z,12.90
2019-04-20T08:39:45.375Z,12.90
2019-04-20T08:42:05.843Z,13.10
2019-04-20T08:47:24.193Z,13.30
2019-04-20T08:49:57.122Z,13.30
2019-04-20T08:52:38.175Z,13.40
2019-04-20T08:54:31.295Z,13.50
2019-04-20T08:56:51.732Z,13.60
2019-04-20T08:59:14.055Z,13.70
2019-04-20T09:01:42.660Z,13.70
2019-04-20T09:04:17.763Z,13.80
2019-04-20T09:06:53.385Z,13.90
2019-04-20T09:09:37.926Z,14.00
2019-04-20T09:12:17.978Z,14.30
2019-04-20T09:14:20.938Z,14.30
2019-04-20T09:16:58.196Z,14.40
2019-04-20T09:19:29.946Z,14.50
2019-04-20T09:22:12.185Z,14.50
2019-04-20T09:24:51.118Z,14.60
2019-04-20T09:27:08.686Z,14.70
2019-04-20T09:29:36.805Z,14.80
2019-04-20T09:32:18.227Z,14.90
2019-04-20T09:34:53.285Z,15.10
2019-04-20T09:37:32.104Z,15.40
2019-04-20T09:40:22.102Z,15.50
2019-04-20T09:42:57.745Z,15.70
2019-04-20T09:45:49.880Z,15.80
2019-04-20T09:48:23.347Z,15.80
2019-04-20T09:51:03.855Z,16.30
2019-04-20T09:53:24.553Z,16.40
2019-04-20T09:56:04.570Z,16.30
2019-04-20T09:58:25.710Z,16.30
2019-04-20T10:00:58.217Z,16.30
2019-04-20T10:03:13.255Z,16.30
2019-04-20T10:05:41.279Z,16.40
2019-04-20T10:08:10.061Z,16.50
2019-04-20T10:10:42.661Z,16.60
2019-04-20T10:13:09.180Z,16.70
2019-04-20T10:15:37.544Z,16.70
2019-04-20T10:18:05.795Z,16.70
2019-04-20T10:20:36.528Z,16.90
2019-04-20T10:23:02.698Z,17.00
2019-04-20T10:25:30.873Z,17.10
2019-04-20T10:27:58.774Z,17.20
2019-04-20T10:30:26.390Z,17.20
2019-04-20T10:32:55.707Z,17.70
2019-04-20T10:35:23.432Z,17.80
2019-04-20T10:37:55.677Z,17.80
2019-04-20T10:40:39.079Z,17.80
2019-04-20T10:42:53.571Z,17.90
2019-04-20T10:45:21.621Z,17.90
2019-04-20T10:47:50.751Z,18.00
2019-04-20T10:50:18.823Z,18.10
2019-04-20T10:52:47.649Z,18.30
2019-04-20T10:55:16.513Z,18.50
2019-04-20T10:57:45.782Z,18.50
2019-04-20T11:00:15.470Z,18.50
2019-04-20T11:02:45.780Z,18.70
2019-04-20T11:05:12.785Z,18.70
2019-04-20T11:07:40.844Z,18.80
2019-04-20T11:10:16.622Z,18.90
2019-04-20T11:12:38.167Z,19.10
2019-04-20T11:15:06.568Z,19.10
2019-04-20T11:17:35.271Z,19.30
2019-04-20T11:20:03.611Z,19.40
2019-04-20T11:22:32.553Z,19.50
2019-04-20T11:25:00.373Z,19.50
2019-04-20T11:27:28.086Z,19.60
2019-04-20T11:29:56.065Z,19.70
2019-04-20T11:32:24.208Z,19.80
2019-04-20T11:34:51.800Z,19.80
2019-04-20T11:37:19.611Z,19.90
2019-04-20T11:39:47.328Z,20.10
2019-04-20T11:42:15.000Z,20.10
2019-04-20T11:44:42.672Z,20.20
2019-04-20T11:47:10.721Z,20.20
2019-04-20T11:49:39.347Z,20.30
2019-04-20T11:52:07.728Z,20.40
2019-04-20T11:54:36.356Z,20.40
2019-04-20T11:57:04.038Z,20.50
2019-04-20T11:59:32.719Z,20.60
2019-04-20T12:02:25.366Z,20.70
2019-04-20T12:05:06.328Z,20.70
2019-04-20T12:07:22.614Z,20.90
2019-04-20T12:09:51.437Z,21.00
2019-04-20T12:12:29.996Z,21.00
2019-04-20T12:14:48.604Z,21.00
2019-04-20T12:17:16.079Z,21.30
2019-04-20T12:19:43.912Z,21.30
2019-04-20T12:22:11.938Z,21.40
2019-04-20T12:24:40.337Z,21.50
2019-04-20T12:27:09.020Z,21.50
2019-04-20T12:29:38.616Z,21.70
2019-04-20T12:32:07.590Z,21.80
2019-04-20T12:34:37.105Z,21.90
2019-04-20T12:37:05.032Z,21.90
2019-04-20T12:39:33.236Z,21.90
2019-04-20T12:42:04.775Z,21.90
2019-04-20T12:44:30.293Z,21.90
2019-04-20T12:46:59.539Z,21.90
2019-04-20T12:49:27.603Z,21.90
2019-04-20T12:51:59.454Z,21.90
2019-04-20T12:54:24.942Z,22.00
2019-04-20T12:56:53.037Z,22.00
2019-04-20T12:59:21.669Z,22.10
2019-04-20T13:01:51.268Z,22.10
2019-04-20T13:04:18.844Z,22.20
2019-04-20T13:06:46.978Z,22.20
2019-04-20T13:09:14.657Z,22.30
2019-04-20T13:11:57.362Z,22.40
2019-04-20T13:15:00.264Z,22.50
2019-04-20T13:17:28.315Z,22.60
2019-04-20T13:19:57.385Z,22.60
2019-04-20T13:22:25.353Z,22.60
2019-04-20T13:24:53.314Z,22.60
2019-04-20T13:27:20.959Z,22.70
2019-04-20T13:29:50.837Z,22.70
2019-04-20T13:32:18.199Z,22.70
2019-04-20T13:34:46.555Z,22.70
2019-04-20T13:37:14.176Z,22.70
2019-04-20T13:39:42.721Z,22.80
2019-04-20T13:42:18.672Z,22.80
2019-04-20T13:44:41.119Z,23.10
2019-04-20T13:47:09.181Z,23.30
2019-04-20T13:49:36.903Z,23.20
2019-04-20T13:52:04.613Z,23.50
2019-04-20T13:54:32.515Z,24.10
2019-04-20T13:57:01.986Z,24.40
2019-04-20T13:59:35.169Z,24.20
2019-04-20T14:02:38.591Z,24.30
2019-04-20T14:05:06.775Z,24.70
2019-04-20T14:07:35.659Z,25.00
2019-04-20T14:10:05.845Z,25.20
2019-04-20T14:12:37.562Z,25.20
2019-04-20T14:15:05.070Z,25.30
2019-04-20T14:17:33.021Z,25.60
2019-04-20T14:20:06.913Z,25.90
2019-04-20T14:22:31.322Z,26.00
2019-04-20T14:24:59.136Z,26.20
2019-04-20T14:27:26.707Z,26.20
2019-04-20T14:29:55.165Z,26.20
2019-04-20T14:32:22.949Z,26.20
2019-04-20T14:34:51.192Z,26.20
2019-04-20T14:37:18.851Z,26.10
2019-04-20T14:39:47.725Z,26.30
2019-04-20T14:42:26.862Z,26.30
2019-04-20T14:44:45.968Z,26.00
2019-04-20T14:47:13.902Z,25.80
2019-04-20T14:49:42.902Z,26.10
2019-04-20T14:52:11.477Z,26.20
2019-04-20T14:54:39.443Z,26.10
2019-04-20T14:57:07.707Z,25.80
2019-04-20T14:59:38.954Z,25.50
2019-04-20T15:02:10.531Z,25.30
2019-04-20T15:04:39.047Z,25.00
2019-04-20T15:07:06.796Z,25.20
2019-04-20T15:09:37.028Z,25.60
2019-04-20T15:12:04.579Z,25.70
2019-04-20T15:14:32.398Z,25.80
2019-04-20T15:17:00.641Z,25.70
2019-04-20T15:19:43.263Z,25.80
2019-04-20T15:22:32.120Z,25.80
2019-04-20T15:25:00.030Z,26.00
2019-04-20T15:27:28.260Z,25.70
2019-04-20T15:29:56.177Z,25.60
2019-04-20T15:32:25.028Z,25.20
2019-04-20T15:34:55.058Z,24.90
2019-04-20T15:37:23.449Z,24.80
2019-04-20T15:39:50.925Z,24.70
2019-04-20T15:42:19.201Z,24.80
2019-04-20T15:44:47.244Z,24.80
2019-04-20T15:47:15.396Z,24.90
2019-04-20T15:49:44.238Z,24.90
2019-04-20T15:52:17.855Z,25.00
2019-04-20T15:54:41.363Z,25.00
2019-04-20T15:57:14.980Z,24.90
2019-04-20T15:59:38.514Z,24.90
2019-04-20T16:02:25.180Z,25.00
2019-04-20T16:05:10.695Z,25.00
2019-04-20T16:07:46.825Z,24.90
2019-04-20T16:10:09.541Z,25.00
2019-04-20T16:12:38.480Z,25.00
2019-04-20T16:15:07.484Z,25.00
2019-04-20T16:17:39.008Z,25.00
2019-04-20T16:20:09.081Z,25.00
2019-04-20T16:22:34.656Z,24.90
2019-04-20T16:25:15.512Z,24.90
2019-04-20T16:27:43.543Z,24.70
2019-04-20T16:30:11.687Z,24.40
2019-04-20T16:32:40.557Z,24.30
2019-04-20T16:35:08.690Z,24.10
2019-04-20T16:37:36.666Z,24.00
2019-04-20T16:40:06.115Z,24.00
2019-04-20T16:42:38.510Z,24.00
2019-04-20T16:45:07.358Z,23.90
2019-04-20T16:47:36.643Z,23.90
2019-04-20T16:50:04.765Z,23.80
2019-04-20T16:52:32.801Z,23.80
2019-04-20T16:55:02.025Z,23.80
2019-04-20T16:57:31.861Z,23.80
2019-04-20T17:00:01.319Z,23.70
2019-04-20T17:02:31.925Z,23.60
2019-04-20T17:05:00.862Z,23.60
2019-04-20T17:07:35.516Z,23.50
2019-04-20T17:10:04.221Z,23.40
2019-04-20T17:12:33.626Z,23.40
2019-04-20T17:15:01.817Z,23.40
2019-04-20T17:17:29.591Z,23.40
2019-04-20T17:19:57.687Z,23.30
2019-04-20T17:22:25.545Z,23.20
2019-04-20T17:24:53.779Z,23.20
2019-04-20T17:27:41.289Z,23.20
2019-04-20T17:30:42.118Z,23.10
2019-04-20T17:33:11.736Z,23.10
2019-04-20T17:35:52.848Z,23.00
2019-04-20T17:38:09.004Z,23.00
2019-04-20T17:40:55.651Z,22.90
2019-04-20T17:43:16.025Z,22.80
2019-04-20T17:45:43.198Z,22.70
2019-04-20T17:48:18.922Z,22.70
2019-04-20T17:50:55.682Z,22.60
2019-04-20T17:53:27.789Z,22.60
2019-04-20T17:55:51.057Z,22.60
2019-04-20T17:58:23.205Z,22.50
2019-04-20T18:01:20.427Z,22.40
2019-04-20T18:04:13.967Z,22.40
2019-04-20T18:06:30.489Z,22.30
2019-04-20T18:08:56.156Z,22.30
2019-04-20T18:11:11.537Z,22.20
2019-04-20T18:13:36.089Z,22.10
2019-04-20T18:16:29.627Z,22.10
2019-04-20T18:19:15.309Z,22.00
2019-04-20T18:21:41.669Z,22.00
2019-04-20T18:24:14.505Z,21.90
2019-04-20T18:27:01.002Z,21.90
2019-04-20T18:29:32.253Z,21.80
2019-04-20T18:31:47.240Z,21.70
2019-04-20T18:34:26.984Z,21.70
2019-04-20T18:36:54.618Z,21.60
2019-04-20T18:39:29.111Z,21.60
2019-04-20T18:41:57.124Z,21.50
2019-04-20T18:44:27.728Z,21.50
2019-04-20T18:47:15.205Z,21.40
2019-04-20T18:49:36.043Z,21.40
2019-04-20T18:51:51.652Z,21.40
2019-04-20T18:54:23.975Z,21.40
2019-04-20T18:56:52.538Z,21.30
2019-04-20T18:59:22.786Z,21.40
2019-04-20T19:01:50.811Z,21.30
2019-04-20T19:04:19.695Z,21.20
2019-04-20T19:06:47.969Z,21.10
2019-04-20T19:09:21.623Z,21.10
2019-04-20T19:11:52.542Z,21.10
2019-04-20T19:14:49.500Z,21.10
2019-04-20T19:17:45.136Z,21.00
2019-04-20T19:20:26.932Z,20.90
2019-04-20T19:22:53.414Z,20.80
2019-04-20T19:25:27.421Z,20.70
2019-04-20T19:27:55.517Z,20.60
2019-04-20T19:30:31.580Z,20.30
2019-04-20T19:33:10.846Z,19.90
2019-04-20T19:35:33.607Z,19.70
2019-04-20T19:37:58.407Z,19.60
2019-04-20T19:40:36.051Z,19.50
2019-04-20T19:43:03.998Z,19.40
2019-04-20T19:45:42.642Z,19.30
2019-04-20T19:48:04.724Z,19.20
2019-04-20T19:50:54.693Z,19.00
2019-04-20T19:53:15.053Z,18.80
2019-04-20T19:55:31.790Z,18.70
2019-04-20T19:58:02.532Z,18.60
2019-04-20T20:00:22.520Z,18.50
2019-04-20T20:02:51.912Z,18.50
2019-04-20T20:05:30.411Z,18.50
2019-04-20T20:07:52.750Z,18.50
2019-04-20T20:10:20.870Z,18.60
2019-04-20T20:12:55.316Z,18.60
2019-04-20T20:15:27.463Z,18.60
2019-04-20T20:18:07.190Z,18.60
2019-04-20T20:20:35.596Z,18.60
2019-04-20T20:22:50.420Z,18.50
2019-04-20T20:25:17.002Z,18.50
2019-04-20T20:27:51.202Z,18.50
2019-04-20T20:30:23.390Z,18.50
2019-04-20T20:33:01.527Z,18.50
2019-04-20T20:35:23.043Z,18.50
2019-04-20T20:37:51.643Z,18.40
2019-04-20T20:40:18.931Z,18.40
2019-04-20T20:42:58.091Z,18.30
2019-04-20T20:45:22.719Z,18.30
2019-04-20T20:48:00.007Z,18.20
2019-04-20T20:50:32.585Z,18.00
2019-04-20T20:52:57.578Z,18.00
2019-04-20T20:55:24.694Z,18.00
2019-04-20T20:57:49.494Z,18.00
2019-04-20T21:00:24.151Z,17.80
2019-04-20T21:02:47.148Z,17.70
2019-04-20T21:05:11.570Z,17.60
2019-04-20T21:07:40.515Z,17.60
2019-04-20T21:10:10.272Z,17.50
2019-04-20T21:12:43.678Z,17.20
2019-04-20T21:15:15.123Z,16.80
2019-04-20T21:18:03.385Z,16.60
2019-04-20T21:20:20.422Z,16.40
2019-04-20T21:22:55.741Z,16.20
2019-04-20T21:25:11.212Z,16.00
2019-04-20T21:27:39.107Z,16.00
2019-04-20T21:30:15.570Z,16.10
2019-04-20T21:32:43.706Z,16.20
2019-04-20T21:35:12.822Z,16.30
2019-04-20T21:37:43.405Z,16.40
2019-04-20T21:40:22.364Z,16.40
2019-04-20T21:42:44.311Z,16.20
2019-04-20T21:45:15.822Z,16.20
2019-04-20T21:47:40.914Z,16.10
2019-04-20T21:50:27.089Z,16.10
2019-04-20T21:52:43.025Z,15.80
2019-04-20T21:55:07.909Z,15.80
2019-04-20T21:57:42.135Z,15.80
2019-04-20T22:00:14.800Z,15.90
2019-04-20T22:02:48.848Z,15.90
2019-04-20T22:05:09.411Z,15.90
2019-04-20T22:07:37.012Z,16.00
2019-04-20T22:10:05.087Z,15.80
2019-04-20T22:12:38.443Z,15.40
2019-04-20T22:15:09.222Z,15.40
2019-04-20T22:17:35.467Z,15.30
2019-04-20T22:20:12.069Z,15.20
2019-04-20T22:22:47.161Z,14.90
2019-04-20T22:25:16.165Z,14.90
2019-04-20T22:27:34.844Z,15.00
2019-04-20T22:30:02.043Z,15.00
2019-04-20T22:32:30.106Z,15.00
2019-04-20T22:35:03.231Z,15.00
2019-04-20T22:37:34.820Z,14.90
2019-04-20T22:40:03.348Z,15.00
2019-04-20T22:42:37.896Z,14.90
2019-04-20T22:45:06.452Z,14.80
2019-04-20T22:47:32.694Z,14.70
2019-04-20T22:50:20.276Z,14.50
2019-04-20T22:52:42.940Z,14.40
2019-04-20T22:55:22.407Z,14.40
2019-04-20T22:57:43.299Z,14.10
2019-04-20T23:00:06.535Z,14.00
2019-04-20T23:02:29.877Z,13.90
2019-04-20T23:04:57.919Z,13.90
2019-04-20T23:07:26.462Z,13.90
2019-04-20T23:09:57.725Z,13.80
2019-04-20T23:12:25.699Z,13.80
2019-04-20T23:14:54.220Z,13.50
2019-04-20T23:17:30.405Z,13.60
2019-04-20T23:19:56.135Z,13.50
2019-04-20T23:22:21.319Z,13.40
2019-04-20T23:24:49.458Z,13.40
2019-04-20T23:27:23.517Z,13.40
2019-04-20T23:29:46.960Z,13.30
2019-04-20T23:32:16.372Z,13.30
2019-04-20T23:34:44.752Z,13.30
2019-04-20T23:37:17.041Z,13.20
2019-04-20T23:39:45.013Z,13.20
2019-04-20T23:42:16.120Z,13.30
2019-04-20T23:45:09.334Z,13.10
2019-04-20T23:47:57.444Z,13.00
2019-04-20T23:50:40.910Z,12.90
2019-04-20T23:53:10.415Z,12.70
2019-04-20T23:55:19.025Z,12.70
2019-04-20T23:57:55.900Z,12.70
